Latest Coastal Weather Observations for Cape Borda

IDT60701

Issued at 12:32 am EDT Wednesday 22 November 2017 (issued every 10 minutes, with the page automatically refreshed every 10 minutes)

About coastal observations | Map of coastal stations | Coastal observations for TAS | Marine services | Other Formats
Station Details ID: 022823 Name: CAPE BORDA Lat: -35.75 Lon: 136.60 Height: 158.0 m
Data from the previous 72 hours. | See also: Recent months at Cape Borda
Date/Time
EDT
Temp
°C
Wind Pressure Rain since
9am
mm
Weather Cloud Vis
km
Sea
Height
m
Swell
Dir  Spd
kts
Gust
kts
hPa Trend Height
m
Period
s
Dir
22/12:30am 26.4 E 11 14 1009.0 - 0.0 - - - - - - -
22/12:00am 27.9 ENE 11 17 1009.5 - 0.0 - - - - - - -
 
Date/Time
EDT
Temp
°C
Wind Pressure Rain since
9am
mm
Weather Cloud Vis
km
Sea
Height
m
Swell
Dir  Spd
kts
Gust
kts
hPa Trend Height
m
Period
s
Dir
21/11:30pm 28.2 ENE 12 18 1009.9 - 0.0 - - - - - - -
21/11:00pm 27.6 E 10 18 1010.2 - 0.0 - - - - - - -
21/10:30pm 27.9 ENE 11 15 1010.5 - 0.0 - - - - - - -
21/10:00pm 27.7 ENE 11 15 1010.4 - 0.0 - - - - - - -
21/09:30pm 27.4 E 10 14 1010.2 - 0.0 - - - - - - -
21/09:00pm 27.4 ENE 10 13 1010.4 - 0.0 - - - - - - -
21/08:30pm 27.6 E 10 14 1010.4 - 0.0 - - - - - - -
21/08:00pm 28.1 ENE 10 14 1010.3 - 0.0 - - - - - - -
21/07:30pm 29.8 ENE 9 13 1010.2 - 0.0 - - - - - - -
21/07:00pm 31.2 ENE 8 12 1010.2 - 0.0 - - - - - - -
21/06:30pm 30.9 ENE 9 13 1010.3 - 0.0 - - - - - - -
21/06:00pm 30.7 ENE 10 13 1010.7 - 0.0 - - - - - - -
21/05:30pm 30.4 ENE 9 13 1010.9 - 0.0 - - - - - - -
21/05:00pm 29.7 NE 11 15 1010.9 - 0.0 - - - - - - -
21/04:30pm 30.2 NE 11 18 1011.3 - 0.0 - - - - - - -
21/04:00pm 29.2 NE 12 18 1011.6 - 0.0 - - - - - - -
21/03:30pm 30.1 NE 12 17 1011.9 F 0.0 Fine Mostly clear 35 <0.5 - - SW
21/03:00pm 29.0 NE 13 19 1012.4 - 0.0 - - - - - - -
21/02:30pm 29.2 NE 13 20 1012.6 - 0.0 - - - - - - -
21/02:00pm 28.8 NE 15 21 1013.0 - 0.0 - - - - - - -
21/01:30pm 28.6 NE 15 22 1013.3 - 0.0 - - - - - - -
21/01:00pm 27.9 NE 14 19 1013.5 - 0.0 - - - - - - -
21/12:30pm 27.7 NE 14 19 1013.5 - 0.0 - - - - - - -
21/12:00pm 27.9 NE 15 19 1013.8 - 0.0 - - - - - - -
21/11:30am 27.4 NE 15 19 1013.7 - 0.0 - - - - - - -
21/11:00am 27.4 NE 14 19 1013.8 - 0.0 - - - - - - -
21/10:30am 26.7 NE 13 19 1013.7 - 0.0 - - - - - - -
21/10:00am 25.6 NE 13 19 1013.7 - 0.0 - - - - - - -
21/09:30am 25.5 ENE 15 21 1013.5 S 0.0 Fine Mostly clear 30 <0.5 - - SW
21/09:00am 25.0 NE 14 19 1013.5 - 0.0 - - - - - - -
21/08:30am 24.7 ENE 15 21 1013.4 - 0.0 - - - - - - -
21/08:00am 24.4 ENE 14 19 1013.2 - 0.0 - - - - - - -
21/07:30am 23.5 ENE 13 17 1013.1 - 0.0 - - - - - - -
21/07:00am 23.5 ENE 12 16 1012.9 - 0.0 - - - - - - -
21/06:30am 22.9 ENE 13 17 1012.5 - 0.0 - - - - - - -
21/06:00am 22.8 ENE 14 19 1012.3 - 0.0 - - - - - - -
21/05:30am 22.9 ENE 14 19 1012.2 - 0.0 - - - - - - -
21/05:00am 23.7 NE 14 21 1012.1 - 0.0 - - - - - - -
21/04:30am 24.2 NE 14 21 1012.2 - 0.0 - - - - - - -
21/04:00am 24.3 NE 15 24 1012.2 - 0.0 - - - - - - -
21/03:30am 24.6 ENE 16 22 1012.0 - 0.0 - - - - - - -
21/03:00am 24.8 ENE 16 24 1012.2 - 0.0 - - - - - - -
21/02:30am 25.0 ENE 17 23 1012.3 - 0.0 - - - - - - -
21/02:00am 26.3 ENE 17 24 1012.4 - 0.0 - - - - - - -
21/01:30am 27.5 ENE 17 25 1012.4 - 0.0 - - - - - - -
21/01:00am 27.7 ENE 14 20 1012.5 - 0.0 - - - - - - -
21/12:30am 27.5 ENE 13 19 1012.5 - 0.0 - - - - - - -
21/12:00am 27.6 ENE 13 19 1012.7 - 0.0 - - - - - - -
 
Date/Time
EDT
Temp
°C
Wind Pressure Rain since
9am
mm
Weather Cloud Vis
km
Sea
Height
m
Swell
Dir  Spd
kts
Gust
kts
hPa Trend Height
m
Period
s
Dir
20/11:30pm 27.2 ENE 11 17 1012.8 - 0.0 - - - - - - -
20/11:00pm 25.3 E 11 14 1012.8 - 0.0 - - - - - - -
20/10:30pm 25.7 E 12 15 1012.7 - 0.0 - - - - - - -
20/10:00pm 26.3 E 12 16 1012.6 - 0.0 - - - - - - -
20/09:30pm 26.7 E 12 17 1012.3 - 0.0 - - - - - - -
20/09:00pm 27.3 E 11 16 1012.3 - 0.0 - - - - - - -
20/08:30pm 27.8 E 10 13 1012.2 - 0.0 - - - - - - -
20/08:00pm 28.6 ENE 14 19 1012.0 - 0.0 - - - - - - -
20/07:30pm 29.4 ENE 14 19 1012.0 - 0.0 - - - - - - -
20/07:00pm 29.3 ENE 14 20 1012.0 - 0.0 - - - - - - -
20/06:30pm 30.2 ENE 12 18 1012.1 - 0.0 - - - - - - -
20/06:00pm 29.2 ENE 15 22 1012.4 - 0.0 - - - - - - -
20/05:30pm 30.1 ENE 14 20 1012.4 - 0.0 - - - - - - -
20/05:00pm 30.1 ENE 15 20 1012.7 - 0.0 - - - - - - -
20/04:30pm 30.2 ENE 14 20 1013.0 - 0.0 - - - - - - -
20/04:00pm 29.7 ENE 14 20 1013.2 - 0.0 - - - - - - -
20/03:30pm 29.2 ENE 15 20 1013.4 F 0.0 Fine Mostly clear 25 <0.5 1.8 6 SW
20/03:00pm 29.5 ENE 15 21 1013.5 - 0.0 - - - - - - -
20/02:30pm 28.1 ENE 15 21 1013.9 - 0.0 - - - - - - -
20/02:00pm 27.9 ENE 15 19 1014.2 - 0.0 - - - - - - -
20/01:30pm 28.1 ENE 15 20 1014.3 - 0.0 - - - - - - -
20/01:00pm 28.1 ENE 15 20 1014.6 - 0.0 - - - - - - -
20/12:30pm 28.6 ENE 14 19 1014.5 - 0.0 - - - - - - -
20/12:00pm 27.8 ENE 15 20 1015.0 - 0.0 - - - - - - -
20/11:30am 27.2 ENE 16 23 1015.0 - 0.0 - - - - - - -
20/11:00am 26.1 ENE 17 24 1014.9 - 0.0 - - - - - - -
20/10:30am 25.6 ENE 17 24 1014.9 - 0.0 - - - - - - -
20/10:00am 25.4 ENE 18 25 1015.1 - 0.0 - - - - - - -
20/09:30am 25.7 ENE 17 25 1014.8 R 0.0 Fine Mostly clear 25 1 1.9 5 SW
20/09:13am 25.2 ENE 16 26 1014.9 - 0.0 - - - - - - -
20/09:00am 25.1 ENE 18 27 1014.9 - 0.0 - - - - - - -
20/08:52am 25.3 ENE 17 27 1014.8 - 0.0 - - - - - - -
20/08:30am 24.8 ENE 16 24 1014.7 - 0.0 - - - - - - -
20/08:05am 24.7 ENE 17 27 1014.6 - 0.0 - - - - - - -
20/08:00am 24.5 ENE 16 24 1014.7 - 0.0 - - - - - - -
20/07:30am 24.1 ENE 16 24 1014.4 - 0.0 - - - - - - -
20/07:00am 23.9 ENE 16 24 1014.3 - 0.0 - - - - - - -
20/06:30am 23.8 ENE 16 21 1013.7 - 0.0 - - - - - - -
20/06:00am 23.8 ENE 15 21 1013.6 - 0.0 - - - - - - -
20/05:50am 23.8 ENE 15 25 1013.6 - 0.0 - - - - - - -
20/05:30am 24.0 ENE 15 23 1013.5 - 0.0 - - - - - - -
20/05:00am 23.9 ENE 14 20 1013.6 - 0.0 - - - - - - -
20/04:30am 24.0 ENE 14 19 1013.4 - 0.0 - - - - - - -
20/04:00am 24.0 ENE 14 20 1013.4 - 0.0 - - - - - - -
20/03:30am 24.2 ENE 13 20 1013.4 - 0.0 - - - - - - -
20/03:00am 24.1 ENE 14 21 1013.5 - 0.0 - - - - - - -
20/02:30am 24.2 ENE 13 19 1013.5 - 0.0 - - - - - - -
20/02:00am 21.8 E 10 13 1013.4 - 0.0 - - - - - - -
20/01:30am 21.6 E 13 16 1013.3 - 0.0 - - - - - - -
20/01:00am 21.2 E 13 19 1013.5 - 0.0 - - - - - - -
20/12:30am 20.7 ESE 14 19 1013.3 - 0.0 - - - - - - -
20/12:00am 20.1 ESE 13 16 1013.5 - 0.0 - - - - - - -
 
Date/Time
EDT
Temp
°C
Wind Pressure Rain since
9am
mm
Weather Cloud Vis
km
Sea
Height
m
Swell
Dir  Spd
kts
Gust
kts
hPa Trend Height
m
Period
s
Dir
19/11:30pm 19.9 ESE 13 17 1013.5 - 0.0 - - - - - - -
19/11:00pm 19.5 ESE 15 21 1013.6 - 0.0 - - - - - - -
19/10:30pm 19.1 ESE 15 20 1013.6 - 0.0 - - - - - - -
19/10:00pm 19.4 ESE 15 20 1013.5 - 0.0 - - - - - - -
19/09:30pm 19.9 ESE 14 19 1013.2 - 0.0 - - - - - - -
19/09:00pm 21.2 ESE 13 17 1013.2 - 0.0 - - - - - - -
19/08:30pm 22.1 ESE 13 17 1013.2 - 0.0 - - - - - - -
19/08:00pm 23.1 ESE 11 15 1013.3 - 0.0 - - - - - - -
19/07:30pm 23.8 ESE 10 14 1013.1 - 0.0 - - - - - - -
19/07:00pm 25.0 ESE 9 13 1013.1 - 0.0 - - - - - - -
19/06:30pm 25.6 ENE 9 13 1012.9 - 0.0 - - - - - - -
19/06:00pm 25.7 ENE 11 16 1013.5 - 0.0 - - - - - - -
19/05:30pm 25.5 ENE 11 16 1013.6 - 0.0 - - - - - - -
19/05:00pm 25.7 ENE 10 14 1013.7 - 0.0 - - - - - - -
19/04:30pm 25.7 NE 12 15 1013.8 - 0.0 - - - - - - -
19/04:00pm 25.7 ENE 12 19 1013.8 - 0.0 - - - - - - -
19/03:30pm 25.2 ENE 13 18 1013.9 F 0.0 Fine Partly cloudy 25 <0.1 1.9 5 SW
19/03:00pm 25.6 ENE 14 18 1014.5 - 0.0 - - - - - - -
19/02:30pm 25.7 ENE 14 21 1014.8 - 0.0 - - - - - - -
19/02:00pm 26.3 ENE 14 18 1015.0 - 0.0 - - - - - - -
19/01:30pm 25.8 ENE 12 17 1015.5 - 0.0 - - - - - - -
19/01:00pm 25.0 NE 11 16 1016.0 - 0.0 - - - - - - -
19/12:30pm 24.7 NE 12 15 1016.0 - 0.0 - - - - - - -
19/12:00pm 24.5 NE 11 15 1016.2 - 0.0 - - - - - - -
19/11:30am 24.4 ENE 11 15 1016.3 - 0.0 - - - - - - -
19/11:00am 23.2 NE 10 14 1016.2 - 0.0 - - - - - - -
19/10:30am 22.9 ENE 10 15 1016.1 - 0.0 - - - - - - -
19/10:00am 23.0 ENE 10 13 1016.0 - 0.0 - - - - - - -
19/09:30am 22.3 ENE 10 12 1015.4 R 0.0 Fine Partly cloudy 18 <0.1 1.8 5 SW
19/09:00am 21.2 E 7 10 1015.4 - 0.0 - - - - - - -
19/08:30am 20.3 ENE 8 11 1015.4 - 0.0 - - - - - - -
19/08:00am 19.0 ENE 5 7 1015.4 - 0.0 - - - - - - -
19/07:30am 16.7 E 6 8 1015.4 - 0.0 - - - - - - -
19/07:00am 15.5 E 9 11 1014.7 - 0.0 - - - - - - -
19/06:30am 15.6 E 10 14 1014.0 - 0.0 - - - - - - -
19/06:00am 15.6 E 11 16 1013.7 - 0.0 - - - - - - -
19/05:30am 15.1 E 12 15 1013.7 - 0.0 - - - - - - -
19/05:00am 14.7 E 11 15 1013.9 - 0.0 - - - - - - -
19/04:30am 12.8 ESE 10 12 1014.4 - 0.0 - - - - - - -
19/04:00am 12.5 ESE 10 12 1014.6 - 0.0 - - - - - - -
19/03:30am 12.2 ESE 10 12 1014.7 - 0.0 - - - - - - -
19/03:00am 12.3 ESE 10 12 1014.8 - 0.0 - - - - - - -
19/02:30am 12.1 ESE 10 13 1014.5 - 0.0 - - - - - - -
19/02:00am 11.8 ESE 10 12 1014.8 - 0.0 - - - - - - -
19/01:30am 12.0 ESE 10 11 1015.0 - 0.0 - - - - - - -

Other Formats:

Comma delimited format used in spreadsheet applications
http://www.bom.gov.au/fwo/IDT60701/IDT60701.95805.axf

JavaScript Object Notation format (JSON) in row-major order
http://www.bom.gov.au/fwo/IDT60701/IDT60701.95805.json